Saint Clement, Missouri
Current Conditions -  °F | °C
As of 5:15 AM on Monday 22 Dec 2014 (Local Time) from KPPQ Reporting Station
Overcast Overcast  
Wind Chill: 34°   Ceiling: 5500
Heat Index: 39°   Visibility: 10mi
Dew Point: 33°   Wind: 8mph
Humidity: 79%   Direction: 110°ESE
Pressure: 29.79"   Gusts: NA
Location:  39.321°N, 91.1912°W
Report Text: KPPQ 221115Z AUTO 11007KT 10SM SCT040 BKN055 OVC075 04/01 A2979 RMK AO2 T00400006
Loading
Personal Weather Stations






























Interactive Weather Map New forecast layout! Learn more

10-Day Weather Forecast

Advertisements
Track Severe Weather on mobile